sensor_id;sensor_type;location;lat;lon;timestamp;temperature;humidity
29571;DHT22;16814;52.118;11.436;2023-04-02T00:07:49;2.80;99.90
29571;DHT22;16814;52.118;11.436;2023-04-02T00:13:03;2.80;99.90
29571;DHT22;16814;52.118;11.436;2023-04-02T00:15:29;2.90;99.90
29571;DHT22;16814;52.118;11.436;2023-04-02T00:17:56;2.80;99.90
29571;DHT22;16814;52.118;11.436;2023-04-02T00:20:22;2.80;99.90
29571;DHT22;16814;52.118;11.436;2023-04-02T00:22:49;2.80;99.90
29571;DHT22;16814;52.118;11.436;2023-04-02T00:25:15;2.70;99.90
29571;DHT22;16814;52.118;11.436;2023-04-02T00:27:41;2.70;99.90
29571;DHT22;16814;52.118;11.436;2023-04-02T00:30:09;2.80;99.90
29571;DHT22;16814;52.118;11.436;2023-04-02T00:32:36;2.80;99.90
29571;DHT22;16814;52.118;11.436;2023-04-02T00:35:12;2.90;99.90
29571;DHT22;16814;52.118;11.436;2023-04-02T00:37:42;2.80;99.90
29571;DHT22;16814;52.118;11.436;2023-04-02T00:40:18;2.70;99.90
29571;DHT22;16814;52.118;11.436;2023-04-02T00:42:46;2.70;99.90
29571;DHT22;16814;52.118;11.436;2023-04-02T00:45:27;2.70;99.90
29571;DHT22;16814;52.118;11.436;2023-04-02T00:47:58;2.80;99.90
29571;DHT22;16814;52.118;11.436;2023-04-02T00:50:38;2.80;99.90
29571;DHT22;16814;52.118;11.436;2023-04-02T00:53:15;2.70;99.90
29571;DHT22;16814;52.118;11.436;2023-04-02T00:55:41;2.60;99.90
29571;DHT22;16814;52.118;11.436;2023-04-02T01:00:52;2.50;99.90
29571;DHT22;16814;52.118;11.436;2023-04-02T01:05:46;2.60;99.90
29571;DHT22;16814;52.118;11.436;2023-04-02T01:16:57;2.60;99.90
29571;DHT22;16814;52.118;11.436;2023-04-02T01:20:09;2.70;99.90
29571;DHT22;16814;52.118;11.436;2023-04-02T01:22:55;2.60;99.90
29571;DHT22;16814;52.118;11.436;2023-04-02T01:28:08;2.60;99.90
29571;DHT22;16814;52.118;11.436;2023-04-02T01:30:35;2.40;99.90
29571;DHT22;16814;52.118;11.436;2023-04-02T01:33:02;2.50;99.90
29571;DHT22;16814;52.118;11.436;2023-04-02T01:35:32;2.60;99.90
29571;DHT22;16814;52.118;11.436;2023-04-02T01:38:21;2.50;99.90
29571;DHT22;16814;52.118;11.436;2023-04-02T01:43:28;2.50;99.90
29571;DHT22;16814;52.118;11.436;2023-04-02T01:45:58;2.50;99.90
29571;DHT22;16814;52.118;11.436;2023-04-02T01:48:28;2.50;99.90
29571;DHT22;16814;52.118;11.436;2023-04-02T01:50:56;2.50;99.90
29571;DHT22;16814;52.118;11.436;2023-04-02T01:53:24;2.40;99.90
29571;DHT22;16814;52.118;11.436;2023-04-02T01:55:57;2.40;99.90
29571;DHT22;16814;52.118;11.436;2023-04-02T01:58:27;2.40;99.90
29571;DHT22;16814;52.118;11.436;2023-04-02T02:01:15;2.50;99.90
29571;DHT22;16814;52.118;11.436;2023-04-02T02:03:42;2.50;99.90
29571;DHT22;16814;52.118;11.436;2023-04-02T02:06:12;2.50;99.90
29571;DHT22;16814;52.118;11.436;2023-04-02T02:08:55;2.50;99.90
29571;DHT22;16814;52.118;11.436;2023-04-02T02:11:26;2.60;99.90
29571;DHT22;16814;52.118;11.436;2023-04-02T02:13:56;2.60;99.90
29571;DHT22;16814;52.118;11.436;2023-04-02T02:16:23;2.60;99.90
29571;DHT22;16814;52.118;11.436;2023-04-02T02:18:55;2.40;99.90
29571;DHT22;16814;52.118;11.436;2023-04-02T02:21:37;2.30;99.90
29571;DHT22;16814;52.118;11.436;2023-04-02T02:24:06;2.40;99.90
29571;DHT22;16814;52.118;11.436;2023-04-02T02:26:38;2.40;99.90
29571;DHT22;16814;52.118;11.436;2023-04-02T02:29:06;2.50;99.90
29571;DHT22;16814;52.118;11.436;2023-04-02T02:31:37;2.50;99.90
29571;DHT22;16814;52.118;11.436;2023-04-02T02:34:14;2.40;99.90
29571;DHT22;16814;52.118;11.436;2023-04-02T02:36:57;2.40;99.90
29571;DHT22;16814;52.118;11.436;2023-04-02T02:39:33;2.40;99.90
29571;DHT22;16814;52.118;11.436;2023-04-02T02:42:07;2.40;99.90
29571;DHT22;16814;52.118;11.436;2023-04-02T02:44:36;2.40;99.90
29571;DHT22;16814;52.118;11.436;2023-04-02T02:47:10;2.40;99.90
29571;DHT22;16814;52.118;11.436;2023-04-02T02:49:46;2.40;99.90
29571;DHT22;16814;52.118;11.436;2023-04-02T02:52:22;2.40;99.90
29571;DHT22;16814;52.118;11.436;2023-04-02T02:55:02;2.30;99.90
29571;DHT22;16814;52.118;11.436;2023-04-02T02:57:33;2.40;99.90
29571;DHT22;16814;52.118;11.436;2023-04-02T03:00:01;2.40;99.90
29571;DHT22;16814;52.118;11.436;2023-04-02T03:02:28;2.40;99.90
29571;DHT22;16814;52.118;11.436;2023-04-02T03:04:55;2.40;99.90
29571;DHT22;16814;52.118;11.436;2023-04-02T03:07:22;2.40;99.90
29571;DHT22;16814;52.118;11.436;2023-04-02T03:10:02;2.30;99.90
29571;DHT22;16814;52.118;11.436;2023-04-02T03:12:44;2.30;99.90
29571;DHT22;16814;52.118;11.436;2023-04-02T03:18:01;2.30;99.90
29571;DHT22;16814;52.118;11.436;2023-04-02T03:20:42;2.30;99.90
29571;DHT22;16814;52.118;11.436;2023-04-02T03:28:26;2.30;99.90
29571;DHT22;16814;52.118;11.436;2023-04-02T03:31:04;2.30;99.90
29571;DHT22;16814;52.118;11.436;2023-04-02T03:33:55;2.30;99.90
29571;DHT22;16814;52.118;11.436;2023-04-02T03:36:36;2.30;99.90
29571;DHT22;16814;52.118;11.436;2023-04-02T03:39:29;2.30;99.90
29571;DHT22;16814;52.118;11.436;2023-04-02T03:42:04;2.30;99.90
29571;DHT22;16814;52.118;11.436;2023-04-02T03:44:41;2.30;99.90
29571;DHT22;16814;52.118;11.436;2023-04-02T03:47:16;2.30;99.90
29571;DHT22;16814;52.118;11.436;2023-04-02T03:49:51;2.40;99.90
29571;DHT22;16814;52.118;11.436;2023-04-02T03:52:28;2.30;99.90
29571;DHT22;16814;52.118;11.436;2023-04-02T03:54:59;2.30;99.90
29571;DHT22;16814;52.118;11.436;2023-04-02T03:57:35;2.40;99.90
29571;DHT22;16814;52.118;11.436;2023-04-02T04:03:19;2.30;99.90
29571;DHT22;16814;52.118;11.436;2023-04-02T04:08:24;2.30;99.90
29571;DHT22;16814;52.118;11.436;2023-04-02T04:10:55;2.40;99.90
29571;DHT22;16814;52.118;11.436;2023-04-02T04:13:28;2.50;99.90
29571;DHT22;16814;52.118;11.436;2023-04-02T04:16:02;2.50;99.90
29571;DHT22;16814;52.118;11.436;2023-04-02T04:21:25;2.30;99.90
29571;DHT22;16814;52.118;11.436;2023-04-02T04:24:01;2.40;99.90
29571;DHT22;16814;52.118;11.436;2023-04-02T04:26:49;2.40;99.90
29571;DHT22;16814;52.118;11.436;2023-04-02T04:32:28;2.40;99.90
29571;DHT22;16814;52.118;11.436;2023-04-02T04:35:06;2.40;99.90
29571;DHT22;16814;52.118;11.436;2023-04-02T04:37:40;2.30;99.90
29571;DHT22;16814;52.118;11.436;2023-04-02T04:40:23;2.30;99.90
29571;DHT22;16814;52.118;11.436;2023-04-02T04:42:54;2.20;99.90
29571;DHT22;16814;52.118;11.436;2023-04-02T04:45:40;2.30;99.90
29571;DHT22;16814;52.118;11.436;2023-04-02T04:51:01;2.30;99.90
29571;DHT22;16814;52.118;11.436;2023-04-02T04:53:29;2.20;99.90
29571;DHT22;16814;52.118;11.436;2023-04-02T04:55:58;2.20;99.90
29571;DHT22;16814;52.118;11.436;2023-04-02T04:58:39;2.30;99.90
29571;DHT22;16814;52.118;11.436;2023-04-02T05:01:16;2.20;99.90
29571;DHT22;16814;52.118;11.436;2023-04-02T05:07:05;2.30;99.90
29571;DHT22;16814;52.118;11.436;2023-04-02T05:10:03;2.30;99.90
29571;DHT22;16814;52.118;11.436;2023-04-02T05:12:55;2.20;99.90
29571;DHT22;16814;52.118;11.436;2023-04-02T05:21:05;2.30;99.90
29571;DHT22;16814;52.118;11.436;2023-04-02T05:23:46;2.40;99.90
29571;DHT22;16814;52.118;11.436;2023-04-02T05:31:58;2.30;99.90
29571;DHT22;16814;52.118;11.436;2023-04-02T05:34:30;2.40;99.90
29571;DHT22;16814;52.118;11.436;2023-04-02T05:36:57;2.40;99.90
29571;DHT22;16814;52.118;11.436;2023-04-02T05:39:24;2.50;99.90
29571;DHT22;16814;52.118;11.436;2023-04-02T05:42:06;2.50;99.90
29571;DHT22;16814;52.118;11.436;2023-04-02T05:44:53;2.60;99.90
29571;DHT22;16814;52.118;11.436;2023-04-02T05:47:26;2.60;99.90
29571;DHT22;16814;52.118;11.436;2023-04-02T05:52:33;2.50;99.90
29571;DHT22;16814;52.118;11.436;2023-04-02T05:57:49;2.40;99.90
29571;DHT22;16814;52.118;11.436;2023-04-02T06:00:46;2.50;99.90
29571;DHT22;16814;52.118;11.436;2023-04-02T06:03:41;2.50;99.90
29571;DHT22;16814;52.118;11.436;2023-04-02T06:09:02;2.60;99.90
29571;DHT22;16814;52.118;11.436;2023-04-02T06:11:32;2.60;99.90
29571;DHT22;16814;52.118;11.436;2023-04-02T06:14:03;2.60;99.90
29571;DHT22;16814;52.118;11.436;2023-04-02T06:16:29;2.50;99.90
29571;DHT22;16814;52.118;11.436;2023-04-02T06:18:59;2.60;99.90
29571;DHT22;16814;52.118;11.436;2023-04-02T06:21:25;2.70;99.90
29571;DHT22;16814;52.118;11.436;2023-04-02T06:24:00;2.80;99.90
29571;DHT22;16814;52.118;11.436;2023-04-02T06:26:42;2.70;99.90
29571;DHT22;16814;52.118;11.436;2023-04-02T06:29:30;2.80;99.90
29571;DHT22;16814;52.118;11.436;2023-04-02T06:32:01;2.90;99.90
29571;DHT22;16814;52.118;11.436;2023-04-02T06:34:29;2.90;99.90
29571;DHT22;16814;52.118;11.436;2023-04-02T06:37:02;2.80;99.90
29571;DHT22;16814;52.118;11.436;2023-04-02T06:39:28;2.80;99.90
29571;DHT22;16814;52.118;11.436;2023-04-02T06:42:03;2.70;99.90
29571;DHT22;16814;52.118;11.436;2023-04-02T06:44:34;2.80;99.90
29571;DHT22;16814;52.118;11.436;2023-04-02T06:50:11;2.90;99.90
29571;DHT22;16814;52.118;11.436;2023-04-02T06:52:50;2.70;99.90
29571;DHT22;16814;52.118;11.436;2023-04-02T06:57:45;2.80;99.90
29571;DHT22;16814;52.118;11.436;2023-04-02T07:00:25;2.90;99.90
29571;DHT22;16814;52.118;11.436;2023-04-02T07:02:52;3.00;99.90
29571;DHT22;16814;52.118;11.436;2023-04-02T07:05:19;3.10;99.90
29571;DHT22;16814;52.118;11.436;2023-04-02T07:07:44;3.00;99.90
29571;DHT22;16814;52.118;11.436;2023-04-02T07:10:11;2.80;99.90
29571;DHT22;16814;52.118;11.436;2023-04-02T07:12:37;2.90;99.90
29571;DHT22;16814;52.118;11.436;2023-04-02T07:15:03;2.90;99.90
29571;DHT22;16814;52.118;11.436;2023-04-02T07:17:29;2.80;99.90
29571;DHT22;16814;52.118;11.436;2023-04-02T07:19:54;2.90;99.90
29571;DHT22;16814;52.118;11.436;2023-04-02T07:22:21;2.90;99.90
29571;DHT22;16814;52.118;11.436;2023-04-02T07:24:47;3.00;99.90
29571;DHT22;16814;52.118;11.436;2023-04-02T07:27:13;2.90;99.90
29571;DHT22;16814;52.118;11.436;2023-04-02T07:29:39;2.90;99.90
29571;DHT22;16814;52.118;11.436;2023-04-02T07:32:11;2.90;99.90
29571;DHT22;16814;52.118;11.436;2023-04-02T07:34:39;3.00;99.90
29571;DHT22;16814;52.118;11.436;2023-04-02T07:37:05;3.00;99.90
29571;DHT22;16814;52.118;11.436;2023-04-02T07:39:32;3.00;99.90
29571;DHT22;16814;52.118;11.436;2023-04-02T07:41:59;3.10;99.90
29571;DHT22;16814;52.118;11.436;2023-04-02T07:44:25;3.00;99.90
29571;DHT22;16814;52.118;11.436;2023-04-02T07:46:51;3.00;99.90
29571;DHT22;16814;52.118;11.436;2023-04-02T07:49:16;3.10;99.90
29571;DHT22;16814;52.118;11.436;2023-04-02T07:51:42;2.90;99.90
29571;DHT22;16814;52.118;11.436;2023-04-02T07:54:07;3.00;99.90
29571;DHT22;16814;52.118;11.436;2023-04-02T07:56:35;3.00;99.90
29571;DHT22;16814;52.118;11.436;2023-04-02T07:59:02;3.10;99.90
29571;DHT22;16814;52.118;11.436;2023-04-02T08:01:28;3.10;99.90
29571;DHT22;16814;52.118;11.436;2023-04-02T08:03:59;3.10;99.90
29571;DHT22;16814;52.118;11.436;2023-04-02T08:06:27;3.10;99.90
29571;DHT22;16814;52.118;11.436;2023-04-02T08:08:53;3.10;99.90
29571;DHT22;16814;52.118;11.436;2023-04-02T08:11:19;3.10;99.90
29571;DHT22;16814;52.118;11.436;2023-04-02T08:13:45;3.20;99.90
29571;DHT22;16814;52.118;11.436;2023-04-02T08:16:10;3.30;99.90
29571;DHT22;16814;52.118;11.436;2023-04-02T08:18:36;3.30;99.90
29571;DHT22;16814;52.118;11.436;2023-04-02T08:21:08;3.20;99.90
29571;DHT22;16814;52.118;11.436;2023-04-02T08:23:34;3.30;99.90
29571;DHT22;16814;52.118;11.436;2023-04-02T08:26:00;3.30;99.90
29571;DHT22;16814;52.118;11.436;2023-04-02T08:28:26;3.30;99.90
29571;DHT22;16814;52.118;11.436;2023-04-02T08:30:52;3.40;99.90
29571;DHT22;16814;52.118;11.436;2023-04-02T08:33:18;3.40;99.90
29571;DHT22;16814;52.118;11.436;2023-04-02T08:35:45;3.40;99.90
29571;DHT22;16814;52.118;11.436;2023-04-02T08:38:18;3.30;99.90
29571;DHT22;16814;52.118;11.436;2023-04-02T08:40:48;3.40;99.90
29571;DHT22;16814;52.118;11.436;2023-04-02T08:46:29;3.30;99.90
29571;DHT22;16814;52.118;11.436;2023-04-02T08:49:00;3.60;99.90
29571;DHT22;16814;52.118;11.436;2023-04-02T08:51:30;3.50;99.90
29571;DHT22;16814;52.118;11.436;2023-04-02T08:54:05;3.50;99.90
29571;DHT22;16814;52.118;11.436;2023-04-02T08:56:48;3.40;99.90
29571;DHT22;16814;52.118;11.436;2023-04-02T08:59:23;3.50;99.90
29571;DHT22;16814;52.118;11.436;2023-04-02T09:02:21;3.40;99.90
29571;DHT22;16814;52.118;11.436;2023-04-02T09:04:49;3.50;99.90
29571;DHT22;16814;52.118;11.436;2023-04-02T09:07:16;3.60;99.90
29571;DHT22;16814;52.118;11.436;2023-04-02T09:09:44;3.70;99.90
29571;DHT22;16814;52.118;11.436;2023-04-02T09:12:25;3.80;99.90
29571;DHT22;16814;52.118;11.436;2023-04-02T09:17:38;3.50;99.90
29571;DHT22;16814;52.118;11.436;2023-04-02T09:20:20;3.60;99.90
29571;DHT22;16814;52.118;11.436;2023-04-02T09:22:49;3.60;99.90
29571;DHT22;16814;52.118;11.436;2023-04-02T09:25:27;3.60;99.90
29571;DHT22;16814;52.118;11.436;2023-04-02T09:27:55;3.70;99.90
29571;DHT22;16814;52.118;11.436;2023-04-02T09:33:04;3.90;99.90
29571;DHT22;16814;52.118;11.436;2023-04-02T09:35:56;4.00;99.90
29571;DHT22;16814;52.118;11.436;2023-04-02T09:38:27;3.90;99.90
29571;DHT22;16814;52.118;11.436;2023-04-02T09:41:01;3.90;99.90
29571;DHT22;16814;52.118;11.436;2023-04-02T09:45:59;4.00;99.90
29571;DHT22;16814;52.118;11.436;2023-04-02T09:48:33;4.00;99.90
29571;DHT22;16814;52.118;11.436;2023-04-02T09:56:26;4.30;99.90
29571;DHT22;16814;52.118;11.436;2023-04-02T09:59:03;4.30;99.90
29571;DHT22;16814;52.118;11.436;2023-04-02T10:01:34;4.30;99.90
29571;DHT22;16814;52.118;11.436;2023-04-02T10:04:02;4.40;99.90
29571;DHT22;16814;52.118;11.436;2023-04-02T10:06:29;4.30;99.90
29571;DHT22;16814;52.118;11.436;2023-04-02T10:08:56;4.30;99.90
29571;DHT22;16814;52.118;11.436;2023-04-02T10:13:56;4.40;99.90
29571;DHT22;16814;52.118;11.436;2023-04-02T10:16:27;4.40;99.90
29571;DHT22;16814;52.118;11.436;2023-04-02T10:18:59;4.50;99.90
29571;DHT22;16814;52.118;11.436;2023-04-02T10:21:35;4.60;99.90
29571;DHT22;16814;52.118;11.436;2023-04-02T10:24:08;4.60;99.90
29571;DHT22;16814;52.118;11.436;2023-04-02T10:26:41;4.60;99.90
29571;DHT22;16814;52.118;11.436;2023-04-02T10:29:38;4.60;99.90
29571;DHT22;16814;52.118;11.436;2023-04-02T10:34:58;4.80;99.90
29571;DHT22;16814;52.118;11.436;2023-04-02T10:37:43;4.90;99.90
29571;DHT22;16814;52.118;11.436;2023-04-02T10:40:35;5.00;99.90
29571;DHT22;16814;52.118;11.436;2023-04-02T10:45:55;5.10;99.90
29571;DHT22;16814;52.118;11.436;2023-04-02T10:54:31;5.10;99.90
29571;DHT22;16814;52.118;11.436;2023-04-02T10:57:13;5.30;99.90
29571;DHT22;16814;52.118;11.436;2023-04-02T10:59:56;5.70;99.90
29571;DHT22;16814;52.118;11.436;2023-04-02T11:05:39;5.90;99.90
29571;DHT22;16814;52.118;11.436;2023-04-02T11:13:26;5.30;99.90
29571;DHT22;16814;52.118;11.436;2023-04-02T11:15:54;5.40;99.90
29571;DHT22;16814;52.118;11.436;2023-04-02T11:18:29;5.80;99.90
29571;DHT22;16814;52.118;11.436;2023-04-02T11:21:05;6.40;99.90
29571;DHT22;16814;52.118;11.436;2023-04-02T11:23:34;6.40;99.90
29571;DHT22;16814;52.118;11.436;2023-04-02T11:26:30;6.10;99.90
29571;DHT22;16814;52.118;11.436;2023-04-02T11:31:46;5.90;99.90
29571;DHT22;16814;52.118;11.436;2023-04-02T11:37:37;5.50;99.90
29571;DHT22;16814;52.118;11.436;2023-04-02T11:42:48;5.70;99.90
29571;DHT22;16814;52.118;11.436;2023-04-02T11:50:33;6.40;99.90
29571;DHT22;16814;52.118;11.436;2023-04-02T11:55:31;7.10;99.90
29571;DHT22;16814;52.118;11.436;2023-04-02T11:58:01;7.30;99.90
29571;DHT22;16814;52.118;11.436;2023-04-02T12:03:33;7.20;99.90
29571;DHT22;16814;52.118;11.436;2023-04-02T12:09:13;7.10;99.90
29571;DHT22;16814;52.118;11.436;2023-04-02T12:11:43;7.40;99.90
29571;DHT22;16814;52.118;11.436;2023-04-02T12:14:48;7.60;99.90
29571;DHT22;16814;52.118;11.436;2023-04-02T12:17:31;7.60;99.90
29571;DHT22;16814;52.118;11.436;2023-04-02T12:22:34;7.40;99.90
29571;DHT22;16814;52.118;11.436;2023-04-02T12:25:04;6.90;99.90
29571;DHT22;16814;52.118;11.436;2023-04-02T12:27:30;7.00;99.90
29571;DHT22;16814;52.118;11.436;2023-04-02T12:30:18;6.90;99.90
29571;DHT22;16814;52.118;11.436;2023-04-02T12:32:43;6.70;99.90
29571;DHT22;16814;52.118;11.436;2023-04-02T12:37:53;7.00;99.90
29571;DHT22;16814;52.118;11.436;2023-04-02T12:40:19;7.30;99.90
29571;DHT22;16814;52.118;11.436;2023-04-02T12:42:44;6.80;99.90
29571;DHT22;16814;52.118;11.436;2023-04-02T12:45:22;6.80;99.90
29571;DHT22;16814;52.118;11.436;2023-04-02T12:47:48;6.90;99.90
29571;DHT22;16814;52.118;11.436;2023-04-02T12:50:14;7.20;99.90
29571;DHT22;16814;52.118;11.436;2023-04-02T12:52:50;7.00;99.90
29571;DHT22;16814;52.118;11.436;2023-04-02T12:55:20;7.10;99.90
29571;DHT22;16814;52.118;11.436;2023-04-02T12:57:46;7.50;99.90
29571;DHT22;16814;52.118;11.436;2023-04-02T13:02:48;7.70;99.90
29571;DHT22;16814;52.118;11.436;2023-04-02T13:07:57;7.40;99.90
29571;DHT22;16814;52.118;11.436;2023-04-02T13:10:25;7.10;99.90
29571;DHT22;16814;52.118;11.436;2023-04-02T13:12:55;7.10;99.90
29571;DHT22;16814;52.118;11.436;2023-04-02T13:15:24;7.20;99.90
29571;DHT22;16814;52.118;11.436;2023-04-02T13:18:05;7.40;99.90
29571;DHT22;16814;52.118;11.436;2023-04-02T13:20:36;7.60;99.90
29571;DHT22;16814;52.118;11.436;2023-04-02T13:26:01;7.70;99.90
29571;DHT22;16814;52.118;11.436;2023-04-02T13:28:33;7.70;99.90
29571;DHT22;16814;52.118;11.436;2023-04-02T13:30:58;7.50;99.90
29571;DHT22;16814;52.118;11.436;2023-04-02T13:33:24;7.70;99.90
29571;DHT22;16814;52.118;11.436;2023-04-02T13:35:50;7.80;99.90
29571;DHT22;16814;52.118;11.436;2023-04-02T13:38:15;7.50;99.90
29571;DHT22;16814;52.118;11.436;2023-04-02T13:40:41;7.50;99.90
29571;DHT22;16814;52.118;11.436;2023-04-02T13:43:09;7.70;99.90
29571;DHT22;16814;52.118;11.436;2023-04-02T13:45:39;7.70;99.90
29571;DHT22;16814;52.118;11.436;2023-04-02T13:48:07;7.80;99.90
29571;DHT22;16814;52.118;11.436;2023-04-02T13:50:37;7.70;99.90
29571;DHT22;16814;52.118;11.436;2023-04-02T13:53:06;7.80;99.90
29571;DHT22;16814;52.118;11.436;2023-04-02T13:55:36;7.60;99.90
29571;DHT22;16814;52.118;11.436;2023-04-02T13:58:03;7.60;99.90
29571;DHT22;16814;52.118;11.436;2023-04-02T14:00:29;7.60;99.90
29571;DHT22;16814;52.118;11.436;2023-04-02T14:03:03;7.60;99.90
29571;DHT22;16814;52.118;11.436;2023-04-02T14:05:53;7.80;99.90
29571;DHT22;16814;52.118;11.436;2023-04-02T14:08:54;7.70;99.90
29571;DHT22;16814;52.118;11.436;2023-04-02T14:11:52;7.40;99.90
29571;DHT22;16814;52.118;11.436;2023-04-02T14:19:46;7.40;99.90
29571;DHT22;16814;52.118;11.436;2023-04-02T14:22:47;7.40;99.90
29571;DHT22;16814;52.118;11.436;2023-04-02T14:30:54;7.10;99.90
29571;DHT22;16814;52.118;11.436;2023-04-02T14:33:39;7.10;99.90
29571;DHT22;16814;52.118;11.436;2023-04-02T14:36:29;7.20;99.90
29571;DHT22;16814;52.118;11.436;2023-04-02T14:42:00;7.30;99.90
29571;DHT22;16814;52.118;11.436;2023-04-02T14:44:33;7.30;99.90
29571;DHT22;16814;52.118;11.436;2023-04-02T14:47:16;7.30;99.90
29571;DHT22;16814;52.118;11.436;2023-04-02T14:49:44;7.10;99.90
29571;DHT22;16814;52.118;11.436;2023-04-02T14:52:17;6.90;99.90
29571;DHT22;16814;52.118;11.436;2023-04-02T14:54:49;6.80;99.90
29571;DHT22;16814;52.118;11.436;2023-04-02T14:57:25;6.80;99.90
29571;DHT22;16814;52.118;11.436;2023-04-02T14:59:55;6.80;99.90
29571;DHT22;16814;52.118;11.436;2023-04-02T15:02:39;6.80;99.90
29571;DHT22;16814;52.118;11.436;2023-04-02T15:07:55;6.90;99.90
29571;DHT22;16814;52.118;11.436;2023-04-02T15:13:20;6.90;99.90
29571;DHT22;16814;52.118;11.436;2023-04-02T15:15:53;7.00;99.90
29571;DHT22;16814;52.118;11.436;2023-04-02T15:18:21;7.00;99.90
29571;DHT22;16814;52.118;11.436;2023-04-02T15:20:58;7.10;99.90
29571;DHT22;16814;52.118;11.436;2023-04-02T15:29:01;6.90;99.90
29571;DHT22;16814;52.118;11.436;2023-04-02T15:31:27;6.70;99.90
29571;DHT22;16814;52.118;11.436;2023-04-02T15:34:22;6.60;99.90
29571;DHT22;16814;52.118;11.436;2023-04-02T15:37:05;6.60;99.90
29571;DHT22;16814;52.118;11.436;2023-04-02T15:42:45;6.70;99.90
29571;DHT22;16814;52.118;11.436;2023-04-02T15:51:11;6.60;99.90
29571;DHT22;16814;52.118;11.436;2023-04-02T15:54:00;6.50;99.90
29571;DHT22;16814;52.118;11.436;2023-04-02T15:59:55;6.60;99.90
29571;DHT22;16814;52.118;11.436;2023-04-02T16:10:34;6.50;99.90
29571;DHT22;16814;52.118;11.436;2023-04-02T16:13:00;6.30;99.90
29571;DHT22;16814;52.118;11.436;2023-04-02T16:15:39;6.30;99.90
29571;DHT22;16814;52.118;11.436;2023-04-02T16:18:15;6.40;99.90
29571;DHT22;16814;52.118;11.436;2023-04-02T16:20:46;6.50;99.90
29571;DHT22;16814;52.118;11.436;2023-04-02T16:23:38;6.30;99.90
29571;DHT22;16814;52.118;11.436;2023-04-02T16:29:13;5.90;99.90
29571;DHT22;16814;52.118;11.436;2023-04-02T16:31:57;6.00;99.90
29571;DHT22;16814;52.118;11.436;2023-04-02T16:34:54;5.80;99.90
29571;DHT22;16814;52.118;11.436;2023-04-02T16:37:47;5.80;99.90
29571;DHT22;16814;52.118;11.436;2023-04-02T16:40:41;5.90;99.90
29571;DHT22;16814;52.118;11.436;2023-04-02T16:43:26;5.70;99.90
29571;DHT22;16814;52.118;11.436;2023-04-02T16:49:43;5.60;99.90
29571;DHT22;16814;52.118;11.436;2023-04-02T16:52:16;5.70;99.90
29571;DHT22;16814;52.118;11.436;2023-04-02T16:57:39;5.60;99.90
29571;DHT22;16814;52.118;11.436;2023-04-02T17:03:14;5.80;99.90
29571;DHT22;16814;52.118;11.436;2023-04-02T17:06:14;5.80;99.90
29571;DHT22;16814;52.118;11.436;2023-04-02T17:08:57;5.80;99.90
29571;DHT22;16814;52.118;11.436;2023-04-02T17:11:49;5.70;99.90
29571;DHT22;16814;52.118;11.436;2023-04-02T17:14:28;5.60;99.90
29571;DHT22;16814;52.118;11.436;2023-04-02T17:17:02;5.60;99.90
29571;DHT22;16814;52.118;11.436;2023-04-02T17:19:29;5.70;99.90
29571;DHT22;16814;52.118;11.436;2023-04-02T17:22:01;5.60;99.90
29571;DHT22;16814;52.118;11.436;2023-04-02T17:29:52;5.50;99.90
29571;DHT22;16814;52.118;11.436;2023-04-02T17:32:26;5.40;99.90
29571;DHT22;16814;52.118;11.436;2023-04-02T17:34:55;5.30;99.90
29571;DHT22;16814;52.118;11.436;2023-04-02T17:37:43;5.40;99.90
29571;DHT22;16814;52.118;11.436;2023-04-02T17:40:28;5.40;99.90
29571;DHT22;16814;52.118;11.436;2023-04-02T17:45:47;5.00;99.90
29571;DHT22;16814;52.118;11.436;2023-04-02T17:59:12;5.00;99.90
29571;DHT22;16814;52.118;11.436;2023-04-02T18:04:50;4.80;99.90
29571;DHT22;16814;52.118;11.436;2023-04-02T18:10:21;4.80;99.90
29571;DHT22;16814;52.118;11.436;2023-04-02T18:13:14;4.80;99.90
29571;DHT22;16814;52.118;11.436;2023-04-02T18:15:55;4.80;99.90
29571;DHT22;16814;52.118;11.436;2023-04-02T18:18:37;4.80;99.90
29571;DHT22;16814;52.118;11.436;2023-04-02T18:21:25;4.70;99.90
29571;DHT22;16814;52.118;11.436;2023-04-02T18:32:37;4.80;99.90
29571;DHT22;16814;52.118;11.436;2023-04-02T18:43:24;4.30;99.90
29571;DHT22;16814;52.118;11.436;2023-04-02T18:46:09;4.20;99.90
29571;DHT22;16814;52.118;11.436;2023-04-02T18:51:19;4.10;99.90
29571;DHT22;16814;52.118;11.436;2023-04-02T18:53:48;4.00;99.90
29571;DHT22;16814;52.118;11.436;2023-04-02T18:56:19;4.00;99.90
29571;DHT22;16814;52.118;11.436;2023-04-02T19:01:51;3.90;99.90
29571;DHT22;16814;52.118;11.436;2023-04-02T19:04:22;3.80;99.90
29571;DHT22;16814;52.118;11.436;2023-04-02T19:06:58;3.60;99.90
29571;DHT22;16814;52.118;11.436;2023-04-02T19:09:30;3.50;99.90
29571;DHT22;16814;52.118;11.436;2023-04-02T19:11:57;3.50;99.90
29571;DHT22;16814;52.118;11.436;2023-04-02T19:14:22;3.40;99.90
29571;DHT22;16814;52.118;11.436;2023-04-02T19:17:02;3.20;99.90
29571;DHT22;16814;52.118;11.436;2023-04-02T19:22:18;2.90;99.90
29571;DHT22;16814;52.118;11.436;2023-04-02T19:25:17;3.00;99.90
29571;DHT22;16814;52.118;11.436;2023-04-02T19:31:00;2.90;99.90
29571;DHT22;16814;52.118;11.436;2023-04-02T19:33:38;2.70;99.90
29571;DHT22;16814;52.118;11.436;2023-04-02T19:39:02;2.60;99.90
29571;DHT22;16814;52.118;11.436;2023-04-02T19:44:07;2.70;99.90
29571;DHT22;16814;52.118;11.436;2023-04-02T19:46:34;2.80;99.90
29571;DHT22;16814;52.118;11.436;2023-04-02T19:49:09;2.70;99.90
29571;DHT22;16814;52.118;11.436;2023-04-02T19:51:35;2.80;99.90
29571;DHT22;16814;52.118;11.436;2023-04-02T19:54:01;2.60;99.90
29571;DHT22;16814;52.118;11.436;2023-04-02T19:56:27;2.50;99.90
29571;DHT22;16814;52.118;11.436;2023-04-02T19:58:52;2.40;99.90
29571;DHT22;16814;52.118;11.436;2023-04-02T20:01:18;2.60;99.90
29571;DHT22;16814;52.118;11.436;2023-04-02T20:03:44;2.50;99.90
29571;DHT22;16814;52.118;11.436;2023-04-02T20:06:10;2.50;99.90
29571;DHT22;16814;52.118;11.436;2023-04-02T20:08:35;2.50;99.90
29571;DHT22;16814;52.118;11.436;2023-04-02T20:11:02;2.30;99.90
29571;DHT22;16814;52.118;11.436;2023-04-02T20:13:28;2.40;99.90
29571;DHT22;16814;52.118;11.436;2023-04-02T20:15:56;2.10;99.90
29571;DHT22;16814;52.118;11.436;2023-04-02T20:18:22;2.30;99.90
29571;DHT22;16814;52.118;11.436;2023-04-02T20:20:48;2.20;99.90
29571;DHT22;16814;52.118;11.436;2023-04-02T20:23:15;2.20;99.90
29571;DHT22;16814;52.118;11.436;2023-04-02T20:25:47;2.30;99.90
29571;DHT22;16814;52.118;11.436;2023-04-02T20:28:18;2.20;99.90
29571;DHT22;16814;52.118;11.436;2023-04-02T20:30:43;1.90;99.90
29571;DHT22;16814;52.118;11.436;2023-04-02T20:33:09;1.90;99.90
29571;DHT22;16814;52.118;11.436;2023-04-02T20:35:34;1.90;99.90
29571;DHT22;16814;52.118;11.436;2023-04-02T20:38:02;1.80;99.90
29571;DHT22;16814;52.118;11.436;2023-04-02T20:40:31;1.80;99.90